Time;durP1;ratioP1;P1;durP2;ratioP2;P2;SDS_P1;SDS_P2;PMS_P1;PMS_P2;Temp;Humidity;BMP_temperature;BMP_pressure;BME280_temperature;BME280_humidity;BME280_pressure;Samples;Min_cycle;Max_cycle;Signal;HPM_P1;HPM_P2
2021/07/17 00:01:01;;;;;;;36.30;9.10;;;;;;;15.87;84.05;102773.72;6127075;23;20072;-78
2021/07/17 00:03:26;;;;;;;39.45;8.57;;;;;;;15.91;83.56;102767.63;6127292;23;20029;-77
2021/07/17 00:05:51;;;;;;;28.17;9.60;;;;;;;15.93;83.36;102773.88;6127299;23;20013;-77
2021/07/17 00:08:17;;;;;;;27.27;8.35;;;;;;;15.96;83.68;102766.00;6127911;23;20438;-79
2021/07/17 00:10:47;;;;;;;29.15;8.13;;;;;;;16.00;83.21;102759.91;6126897;23;20311;-77
2021/07/17 00:13:13;;;;;;;35.85;8.35;;;;;;;16.03;83.08;102759.97;6127700;23;20009;-79
2021/07/17 00:15:38;;;;;;;32.17;8.85;;;;;;;16.05;83.08;102762.66;6127031;23;20034;-77
2021/07/17 00:18:04;;;;;;;38.63;8.73;;;;;;;16.04;83.21;102758.22;6101432;23;20092;-79
2021/07/17 00:20:50;;;;;;;34.28;8.90;;;;;;;16.07;83.04;102756.53;6126537;23;20016;-76
2021/07/17 00:23:36;;;;;;;32.05;10.48;;;;;;;16.11;83.15;102757.50;6127674;23;20084;-79
2021/07/17 00:26:03;;;;;;;39.30;11.70;;;;;;;16.13;83.05;102756.69;6126902;23;20073;-76
2021/07/17 00:28:48;;;;;;;29.15;10.00;;;;;;;16.15;83.30;102760.25;6127042;23;20374;-77
2021/07/17 00:31:14;;;;;;;28.35;9.60;;;;;;;16.19;82.63;102762.13;6126835;23;20323;-77
2021/07/17 00:33:40;;;;;;;31.25;9.82;;;;;;;16.22;82.66;102765.72;6126207;23;20049;-76
2021/07/17 00:36:05;;;;;;;31.25;8.93;;;;;;;16.24;82.12;102764.91;6126965;23;20021;-78
2021/07/17 00:38:31;;;;;;;25.00;9.68;;;;;;;16.27;82.01;102759.66;6101436;23;20084;-77
2021/07/17 00:40:56;;;;;;;30.85;9.40;;;;;;;16.31;81.87;102761.53;6127319;23;20025;-76
2021/07/17 00:43:22;;;;;;;39.30;9.20;;;;;;;16.32;81.86;102763.34;6127934;23;20014;-79
2021/07/17 00:45:47;;;;;;;33.17;9.52;;;;;;;16.35;81.64;102765.16;6126642;23;20471;-77
2021/07/17 00:48:12;;;;;;;31.10;8.77;;;;;;;16.34;81.43;102769.56;6127579;23;20002;-77
2021/07/17 00:50:38;;;;;;;26.25;9.45;;;;;;;16.34;81.87;102763.38;6127223;23;20085;-77
2021/07/17 00:53:04;;;;;;;34.83;9.10;;;;;;;16.37;81.13;102768.75;6126950;23;20010;-77
2021/07/17 00:55:41;;;;;;;32.58;9.52;;;;;;;16.39;81.15;102772.34;6127759;23;20017;-77
2021/07/17 00:58:08;;;;;;;29.90;9.27;;;;;;;16.38;81.09;102757.25;6127426;23;20061;-79
2021/07/17 01:00:33;;;;;;;31.92;8.68;;;;;;;16.40;81.39;102770.56;6125830;23;20002;-77
2021/07/17 01:03:05;;;;;;;33.20;8.93;;;;;;;16.39;81.33;102777.66;6128122;23;20116;-77
2021/07/17 01:05:31;;;;;;;26.45;8.68;;;;;;;16.37;81.23;102771.41;6128100;23;20069;-78
2021/07/17 01:08:17;;;;;;;27.40;9.00;;;;;;;16.34;81.52;102771.34;6127712;23;20373;-76
2021/07/17 01:10:42;;;;;;;26.75;9.20;;;;;;;16.34;81.11;102768.69;6126208;23;20018;-77
2021/07/17 01:13:08;;;;;;;33.30;10.18;;;;;;;16.32;81.51;102765.09;6101241;23;20006;-78
2021/07/17 01:15:34;;;;;;;23.10;8.38;;;;;;;16.30;81.55;102769.47;6126925;23;20030;-76
2021/07/17 01:17:59;;;;;;;31.90;9.70;;;;;;;16.27;81.68;102774.72;6127385;23;20018;-77
2021/07/17 01:20:45;;;;;;;33.97;9.75;;;;;;;16.21;82.04;102772.81;6126025;23;20080;-77
2021/07/17 01:23:12;;;;;;;39.70;10.50;;;;;;;16.14;82.24;102763.81;6101452;23;20034;-78
2021/07/17 01:25:37;;;;;;;36.50;10.60;;;;;;;16.05;82.46;102755.59;6127106;23;20016;-79
2021/07/17 01:28:23;;;;;;;32.30;10.10;;;;;;;15.97;82.63;102762.47;6126188;23;20018;-77
2021/07/17 01:30:52;;;;;;;28.63;9.88;;;;;;;15.89;82.96;102756.09;6126557;23;20005;-78
2021/07/17 01:33:17;;;;;;;30.40;9.65;;;;;;;15.84;83.01;102754.22;6127386;23;20449;-77
2021/07/17 01:35:44;;;;;;;31.10;9.95;;;;;;;15.77;83.44;102761.94;6127224;23;20036;-77
2021/07/17 01:38:09;;;;;;;34.95;10.00;;;;;;;15.68;84.04;102765.22;6127355;23;20002;-78
2021/07/17 01:40:35;;;;;;;28.55;10.43;;;;;;;15.60;84.39;102761.47;6126235;23;20013;-79
2021/07/17 01:43:02;;;;;;;38.72;10.02;;;;;;;15.55;84.67;102760.50;6126624;23;20052;-77
2021/07/17 01:45:30;;;;;;;26.95;10.65;;;;;;;15.45;85.17;102760.22;6127108;23;20005;-77
2021/07/17 01:47:55;;;;;;;37.03;10.98;;;;;;;15.41;85.22;102755.69;6127108;23;20073;-78
2021/07/17 01:50:24;;;;;;;32.10;10.32;;;;;;;15.39;85.31;102761.81;6127326;23;20026;-78
2021/07/17 01:52:51;;;;;;;34.25;10.05;;;;;;;15.35;85.47;102752.88;6127647;23;20021;-76
2021/07/17 01:55:16;;;;;;;33.05;10.05;;;;;;;15.30;85.69;102763.38;6126949;23;20038;-77
2021/07/17 01:57:43;;;;;;;30.30;10.25;;;;;;;15.29;85.61;102760.69;6126710;23;20005;-77
2021/07/17 02:00:09;;;;;;;33.83;10.48;;;;;;;15.28;85.63;102766.81;6100899;23;20010;-78
2021/07/17 02:02:35;;;;;;;36.92;10.50;;;;;;;15.26;86.04;102755.25;6126921;23;20005;-78
2021/07/17 02:05:21;;;;;;;37.38;12.00;;;;;;;15.23;86.73;102752.53;6126943;23;20434;-79
2021/07/17 02:07:47;;;;;;;42.15;10.73;;;;;;;15.17;86.81;102754.16;6126145;23;20009;-76
2021/07/17 02:10:18;;;;;;;38.92;10.30;;;;;;;15.16;86.89;102746.16;6126022;23;20010;-76
2021/07/17 02:13:16;;;;;;;37.78;11.00;;;;;;;15.15;87.42;102750.56;6126173;23;20044;-79
2021/07/17 02:15:45;;;;;;;41.90;10.55;;;;;;;15.14;87.28;102746.13;6125961;23;20014;-77
2021/07/17 02:18:13;;;;;;;32.60;10.63;;;;;;;15.12;87.06;102745.16;6126333;23;20068;-77
2021/07/17 02:20:39;;;;;;;43.45;10.93;;;;;;;15.08;87.38;102748.56;6126775;23;20053;-78
2021/07/17 02:23:05;;;;;;;44.50;10.77;;;;;;;15.06;87.08;102754.72;6126033;23;20147;-78
2021/07/17 02:25:50;;;;;;;56.40;11.35;;;;;;;15.00;87.65;102753.69;6126740;23;20485;-78
2021/07/17 02:28:16;;;;;;;37.78;10.23;;;;;;;14.98;87.79;102757.13;6126789;23;20014;-78
2021/07/17 02:30:41;;;;;;;45.05;11.73;;;;;;;14.94;88.33;102749.97;6126604;23;20063;-77
2021/07/17 02:33:07;;;;;;;38.75;9.82;;;;;;;14.94;88.07;102758.78;6127220;23;20325;-78
2021/07/17 02:35:32;;;;;;;41.22;11.73;;;;;;;14.92;88.38;102754.28;6127042;23;20005;-79
2021/07/17 02:37:57;;;;;;;51.58;11.13;;;;;;;14.88;88.64;102757.72;6126618;23;19998;-76
2021/07/17 02:40:23;;;;;;;40.47;11.70;;;;;;;14.84;88.39;102754.97;6127107;23;20010;-77
2021/07/17 02:42:49;;;;;;;33.25;10.55;;;;;;;14.83;88.40;102757.59;6100210;23;20033;-77
2021/07/17 02:45:14;;;;;;;36.40;11.95;;;;;;;14.80;88.36;102752.22;6126415;23;20018;-77
2021/07/17 02:47:40;;;;;;;40.38;11.82;;;;;;;14.77;88.63;102746.78;6126151;23;20057;-76
2021/07/17 02:50:07;;;;;;;44.63;11.07;;;;;;;14.73;88.76;102750.19;6099845;23;20460;-79
2021/07/17 02:52:52;;;;;;;36.13;10.88;;;;;;;14.70;88.66;102747.47;6126613;23;20093;-76
2021/07/17 02:55:18;;;;;;;38.47;12.18;;;;;;;14.64;88.72;102750.84;6126186;23;20040;-77
2021/07/17 02:57:59;;;;;;;37.35;10.85;;;;;;;14.59;88.99;102753.28;6126078;23;20081;-78
2021/07/17 03:00:25;;;;;;;41.20;11.65;;;;;;;14.53;89.47;102758.44;6126385;23;20036;-77
2021/07/17 03:02:50;;;;;;;46.58;12.10;;;;;;;14.50;89.46;102753.94;6127031;23;20026;-77
2021/07/17 03:05:15;;;;;;;40.88;12.55;;;;;;;14.46;89.44;102757.34;6126660;23;20033;-76
2021/07/17 03:07:41;;;;;;;32.13;10.55;;;;;;;14.45;89.47;102755.53;6125865;23;20002;-77
2021/07/17 03:10:07;;;;;;;48.13;12.50;;;;;;;14.43;89.55;102757.25;6126369;23;20013;-78
2021/07/17 03:12:33;;;;;;;46.65;12.23;;;;;;;14.42;89.28;102763.38;6100412;23;20037;-77
2021/07/17 03:14:58;;;;;;;38.78;12.27;;;;;;;14.40;89.68;102757.13;6126591;23;20061;-77
2021/07/17 03:17:24;;;;;;;52.03;11.75;;;;;;;14.38;89.46;102758.84;6126633;23;20421;-76
2021/07/17 03:19:49;;;;;;;49.72;12.35;;;;;;;14.36;89.77;102760.53;6125110;23;20021;-77
2021/07/17 03:22:14;;;;;;;40.90;12.23;;;;;;;14.35;89.65;102764.03;6100432;23;20041;-77
2021/07/17 03:24:40;;;;;;;43.45;11.75;;;;;;;14.34;89.60;102756.94;6125933;23;20018;-77
2021/07/17 03:27:05;;;;;;;44.33;11.68;;;;;;;14.36;89.96;102765.81;6126108;23;20002;-78
2021/07/17 03:29:31;;;;;;;54.42;12.85;;;;;;;14.36;90.16;102762.28;6126374;23;20056;-76
2021/07/17 03:31:56;;;;;;;51.15;14.43;;;;;;;14.36;90.58;102759.66;6126567;23;20014;-76
2021/07/17 03:34:22;;;;;;;39.17;10.52;;;;;;;14.38;90.47;102763.22;6127617;23;20041;-76
2021/07/17 03:36:47;;;;;;;45.65;12.40;;;;;;;14.37;90.24;102762.34;6127395;23;20085;-78
2021/07/17 03:39:13;;;;;;;51.30;12.63;;;;;;;14.38;90.32;102760.56;6126015;23;20014;-78
2021/07/17 03:41:38;;;;;;;46.60;11.25;;;;;;;14.39;90.24;102754.44;6126135;23;20040;-76
2021/07/17 03:44:06;;;;;;;42.60;11.52;;;;;;;14.40;90.49;102761.53;6126061;23;20307;-76
2021/07/17 03:46:32;;;;;;;45.55;11.40;;;;;;;14.39;90.34;102760.66;6126636;23;20010;-78
2021/07/17 03:48:57;;;;;;;42.22;11.43;;;;;;;14.37;90.42;102762.34;6126213;23;20341;-78
2021/07/17 03:51:23;;;;;;;44.28;11.95;;;;;;;14.33;90.77;102758.69;6126825;23;20013;-78
2021/07/17 03:53:48;;;;;;;34.95;11.77;;;;;;;14.34;90.90;102772.84;6126340;23;20006;-77
2021/07/17 03:56:14;;;;;;;46.65;12.13;;;;;;;14.35;90.47;102774.63;6125649;23;20010;-79
2021/07/17 03:58:39;;;;;;;44.42;12.85;;;;;;;14.36;91.24;102773.78;6126117;23;20002;-78
2021/07/17 04:01:04;;;;;;;47.20;12.98;;;;;;;14.37;91.00;102766.75;6126422;23;20275;-78
2021/07/17 04:03:32;;;;;;;39.15;12.38;;;;;;;14.40;91.22;102773.00;6126363;23;20008;-77
2021/07/17 04:05:58;;;;;;;58.85;14.02;;;;;;;14.40;91.27;102761.53;6127565;23;20009;-77
2021/07/17 04:08:23;;;;;;;46.05;12.05;;;;;;;14.41;91.44;102769.53;6127001;23;20425;-77
2021/07/17 04:11:03;;;;;;;42.88;12.93;;;;;;;14.46;91.67;102772.31;6126175;23;20018;-77
2021/07/17 04:13:49;;;;;;;40.83;11.18;;;;;;;14.48;91.94;102771.50;6125894;23;20017;-78
2021/07/17 04:16:34;;;;;;;53.08;13.48;;;;;;;14.53;91.90;102771.66;6126935;23;20005;-77
2021/07/17 04:18:59;;;;;;;52.78;12.70;;;;;;;14.56;91.96;102770.88;6126221;23;20026;-79
2021/07/17 04:21:25;;;;;;;45.35;12.55;;;;;;;14.59;92.01;102777.13;6126589;23;20444;-77
2021/07/17 04:23:51;;;;;;;45.13;13.10;;;;;;;14.63;92.25;102778.19;6100719;23;20110;-77
2021/07/17 04:26:36;;;;;;;51.25;12.93;;;;;;;14.66;92.20;102780.91;6126461;23;20422;-80
2021/07/17 04:29:02;;;;;;;47.95;12.65;;;;;;;14.71;92.08;102775.78;6126130;23;20010;-77
2021/07/17 04:31:29;;;;;;;43.55;13.02;;;;;;;14.77;92.30;102776.88;6126618;23;20041;-79
2021/07/17 04:33:55;;;;;;;47.17;12.45;;;;;;;14.83;92.15;102776.16;6126572;23;20088;-79
2021/07/17 04:36:40;;;;;;;40.97;11.82;;;;;;;14.91;92.30;102776.38;6127525;23;20040;-79
2021/07/17 04:39:05;;;;;;;48.20;13.10;;;;;;;14.99;92.04;102785.47;6126537;23;20006;-78
2021/07/17 04:41:31;;;;;;;43.38;12.50;;;;;;;15.06;92.27;102782.13;6125908;23;20013;-79
2021/07/17 04:43:56;;;;;;;50.58;13.00;;;;;;;15.13;92.17;102789.38;6126819;23;20081;-79
2021/07/17 04:46:21;;;;;;;47.45;12.23;;;;;;;15.22;92.07;102787.84;6127744;23;20021;-77
2021/07/17 04:48:47;;;;;;;47.13;12.35;;;;;;;15.28;92.04;102793.34;6128921;23;20049;-78
2021/07/17 04:51:13;;;;;;;39.35;11.05;;;;;;;15.38;91.91;102784.78;6128785;23;20347;-79
2021/07/17 04:53:38;;;;;;;31.90;9.90;;;;;;;15.45;91.62;102786.75;6102489;23;20041;-76
2021/07/17 04:56:04;;;;;;;47.40;10.73;;;;;;;15.56;91.41;102788.78;6128324;23;20040;-78
2021/07/17 04:58:29;;;;;;;39.17;10.70;;;;;;;15.64;91.13;102787.25;6127008;23;20014;-79
2021/07/17 05:00:55;;;;;;;48.25;10.45;;;;;;;15.68;90.69;102790.03;6128684;23;20006;-78
2021/07/17 05:03:20;;;;;;;45.33;10.07;;;;;;;15.79;90.50;102795.63;6128843;23;20073;-76
2021/07/17 05:05:47;;;;;;;43.65;10.57;;;;;;;15.89;90.37;102793.25;6128528;23;20006;-79
2021/07/17 05:08:12;;;;;;;40.75;9.73;;;;;;;15.99;89.95;102790.88;6128732;23;19998;-78
2021/07/17 05:10:38;;;;;;;40.08;9.20;;;;;;;16.07;90.02;102784.84;6127591;23;20069;-76
2021/07/17 05:13:34;;;;;;;35.47;9.45;;;;;;;16.19;89.42;102782.50;6127749;23;20426;-77
2021/07/17 05:15:59;;;;;;;35.45;8.73;;;;;;;16.31;89.09;102792.53;6128649;23;20033;-79
2021/07/17 05:18:25;;;;;;;30.55;8.57;;;;;;;16.43;88.97;102792.81;6128322;23;20021;-79
2021/07/17 05:20:50;;;;;;;33.95;8.15;;;;;;;16.57;88.18;102786.94;6128050;23;20033;-77
2021/07/17 05:23:19;;;;;;;29.10;7.85;;;;;;;16.69;87.35;102790.75;6102216;23;20010;-77
2021/07/17 05:25:50;;;;;;;37.22;9.23;;;;;;;16.83;87.30;102788.41;6126078;23;20002;-79
2021/07/17 05:28:36;;;;;;;30.88;7.30;;;;;;;16.98;86.19;102787.88;6127539;23;20096;-80
2021/07/17 05:31:01;;;;;;;32.83;8.43;;;;;;;17.15;85.63;102779.34;6127810;23;20077;-78
2021/07/17 05:33:27;;;;;;;23.27;7.18;;;;;;;17.30;84.36;102784.09;6127206;23;20013;-77
2021/07/17 05:35:52;;;;;;;26.27;6.55;;;;;;;17.55;83.70;102789.88;6127621;23;20055;-78
2021/07/17 05:38:18;;;;;;;24.08;7.35;;;;;;;17.79;82.22;102779.66;6127411;23;20441;-79
2021/07/17 05:40:44;;;;;;;21.35;5.70;;;;;;;18.09;81.79;102786.41;6128213;23;20334;-77
2021/07/17 05:43:29;;;;;;;23.45;6.43;;;;;;;18.29;80.68;102788.53;6128518;23;20014;-77
2021/07/17 05:45:55;;;;;;;20.90;6.47;;;;;;;18.67;79.25;102788.19;6127441;23;20005;-78
2021/07/17 05:48:40;;;;;;;26.23;6.22;;;;;;;18.96;78.13;102791.25;6127805;23;20005;-80
2021/07/17 05:51:05;;;;;;;19.10;5.35;;;;;;;19.27;76.57;102790.75;6128289;23;20010;-78
2021/07/17 05:53:51;;;;;;;19.05;5.00;;;;;;;19.46;75.42;102786.53;6127983;23;20004;-79
2021/07/17 05:56:16;;;;;;;21.88;6.38;;;;;;;19.67;74.24;102780.50;6127603;23;20010;-79
2021/07/17 05:58:44;;;;;;;22.20;6.07;;;;;;;19.94;73.28;102778.97;6127259;23;20013;-80
2021/07/17 06:01:09;;;;;;;16.88;4.68;;;;;;;20.27;71.20;102782.81;6127889;23;20013;-76
2021/07/17 06:03:35;;;;;;;21.25;5.10;;;;;;;20.50;70.75;102783.84;6128110;23;20068;-78
2021/07/17 06:06:01;;;;;;;16.52;5.28;;;;;;;20.76;69.37;102780.47;6128179;23;20014;-78
2021/07/17 06:08:26;;;;;;;20.60;4.07;;;;;;;21.06;68.38;102781.50;6127774;23;20041;-77
2021/07/17 06:10:51;;;;;;;15.43;4.03;;;;;;;21.43;66.70;102775.34;6127060;23;20068;-79
2021/07/17 06:13:17;;;;;;;16.92;4.03;;;;;;;21.69;67.01;102776.34;6128083;23;20001;-80
2021/07/17 06:15:42;;;;;;;15.82;3.63;;;;;;;21.86;66.62;102787.03;6127616;23;20006;-78
2021/07/17 06:18:08;;;;;;;14.13;3.88;;;;;;;21.86;64.06;102792.41;6126742;23;20445;-80
2021/07/17 06:20:33;;;;;;;16.42;3.80;;;;;;;22.10;64.24;102796.00;6127058;23;20014;-79
2021/07/17 06:22:58;;;;;;;13.27;4.32;;;;;;;22.19;64.33;102803.13;6127236;23;20085;-81
2021/07/17 06:25:24;;;;;;;8.63;3.25;;;;;;;22.27;64.98;102803.13;6127199;23;20004;-79
2021/07/17 06:28:09;;;;;;;10.52;3.65;;;;;;;22.35;63.22;102801.38;6126934;23;20002;-79
2021/07/17 06:30:35;;;;;;;16.48;3.63;;;;;;;22.66;63.97;102796.81;6126614;23;20085;-80
2021/07/17 06:33:00;;;;;;;15.57;3.17;;;;;;;22.70;61.90;102798.59;6126163;23;20069;-77
2021/07/17 06:35:25;;;;;;;14.40;4.32;;;;;;;23.27;61.48;102800.19;6125579;23;20012;-75
2021/07/17 06:37:51;;;;;;;15.10;3.58;;;;;;;23.35;59.75;102792.09;6127432;23;20009;-79
2021/07/17 06:40:17;;;;;;;10.48;2.95;;;;;;;23.76;58.99;102796.28;6127554;23;20012;-78
2021/07/17 06:42:48;;;;;;;11.32;2.85;;;;;;;23.93;58.50;102800.66;6126298;23;20315;-79
2021/07/17 06:45:34;;;;;;;9.15;3.05;;;;;;;23.75;58.08;102802.56;6126486;23;20014;-78
2021/07/17 06:48:00;;;;;;;12.85;3.60;;;;;;;23.81;59.04;102813.28;6125823;23;20096;-78
2021/07/17 06:50:25;;;;;;;14.13;3.70;;;;;;;23.67;58.25;102812.47;6100822;23;20047;-77
2021/07/17 06:52:50;;;;;;;9.63;3.13;;;;;;;24.15;57.06;102804.97;6126458;23;20017;-80
2021/07/17 06:55:16;;;;;;;18.63;3.03;;;;;;;24.21;56.57;102815.69;6126802;23;20010;-78
2021/07/17 06:57:42;;;;;;;8.52;2.47;;;;;;;24.29;56.90;102814.72;6124836;23;20002;-78
2021/07/17 07:00:10;;;;;;;9.43;2.47;;;;;;;24.41;56.84;102811.91;6120109;23;20341;-77
2021/07/17 07:02:36;;;;;;;13.85;3.15;;;;;;;24.30;56.33;102812.00;6123661;23;20385;-79
2021/07/17 07:05:22;;;;;;;13.15;2.97;;;;;;;24.49;57.52;102815.41;6126328;23;20017;-77
2021/07/17 07:07:48;;;;;;;10.70;2.65;;;;;;;24.42;56.57;102816.38;6125517;23;20010;-77
2021/07/17 07:10:13;;;;;;;9.73;2.55;;;;;;;24.67;55.23;102806.25;6125513;23;20481;-80
2021/07/17 07:12:39;;;;;;;11.38;3.00;;;;;;;24.73;56.73;102816.97;6126261;23;20448;-79
2021/07/17 07:15:07;;;;;;;11.18;3.25;;;;;;;25.01;55.66;102821.13;6126953;23;20333;-78
2021/07/17 07:17:47;;;;;;;8.00;2.80;;;;;;;25.29;54.75;102818.09;6124502;23;20002;-79
2021/07/17 07:20:13;;;;;;;8.80;2.95;;;;;;;25.21;54.49;102821.75;6099719;23;20045;-76
2021/07/17 07:22:40;;;;;;;11.13;2.55;;;;;;;25.27;52.80;102818.06;6125271;23;20010;-77
2021/07/17 07:25:25;;;;;;;9.07;2.78;;;;;;;25.04;53.38;102819.28;6125576;23;20448;-78
2021/07/17 07:27:50;;;;;;;6.32;2.80;;;;;;;24.74;57.66;102834.91;6099109;23;20010;-79
2021/07/17 07:30:21;;;;;;;10.10;2.53;;;;;;;24.79;55.41;102831.28;6124477;23;20010;-82
2021/07/17 07:33:06;;;;;;;10.25;3.38;;;;;;;24.64;56.05;102833.22;6124898;23;20025;-80
2021/07/17 07:35:32;;;;;;;9.25;2.42;;;;;;;24.28;55.11;102834.44;6124128;23;20084;-79
2021/07/17 07:37:57;;;;;;;7.68;2.35;;;;;;;24.23;58.17;102843.44;6125448;23;20025;-76
2021/07/17 07:40:25;;;;;;;7.63;2.30;;;;;;;24.47;55.66;102845.91;6126759;23;20081;-79
2021/07/17 07:42:51;;;;;;;8.82;2.20;;;;;;;23.90;56.88;102844.59;6124838;23;20014;-78
2021/07/17 07:45:36;;;;;;;8.43;2.30;;;;;;;24.49;55.96;102839.63;6125579;23;20020;-78
2021/07/17 07:48:02;;;;;;;11.05;2.80;;;;;;;25.00;55.24;102847.19;6123993;23;20019;-78
2021/07/17 07:50:28;;;;;;;11.57;2.10;;;;;;;25.39;52.52;102833.22;6125778;23;20385;-79
2021/07/17 07:52:53;;;;;;;7.65;1.90;;;;;;;25.24;52.61;102832.50;6124749;23;20318;-80
2021/07/17 07:55:38;;;;;;;5.82;2.13;;;;;;;24.85;55.21;102825.81;6126098;23;20006;-81
2021/07/17 07:58:04;;;;;;;7.72;1.92;;;;;;;24.72;53.47;102825.94;6124296;23;20002;-79
2021/07/17 08:00:29;;;;;;;8.07;1.98;;;;;;;24.87;57.03;102832.97;6124856;23;20006;-79
2021/07/17 08:02:55;;;;;;;12.10;2.22;;;;;;;24.89;53.01;102825.75;6124541;23;20017;-79
2021/07/17 08:05:21;;;;;;;6.47;1.95;;;;;;;24.66;53.35;102826.03;6099189;23;20010;-77
2021/07/17 08:07:46;;;;;;;5.97;1.90;;;;;;;24.57;56.40;102832.34;6124187;23;20018;-78
2021/07/17 08:10:12;;;;;;;7.25;1.80;;;;;;;24.80;54.72;102830.34;6125228;23;20093;-78
2021/07/17 08:12:37;;;;;;;6.03;1.75;;;;;;;24.86;52.68;102816.81;6124583;23;20002;-79
2021/07/17 08:15:03;;;;;;;10.05;2.67;;;;;;;24.74;52.18;102823.22;6127321;23;20012;-80
2021/07/17 08:17:28;;;;;;;3.90;1.73;;;;;;;24.50;53.58;102822.56;6127037;23;20314;-77
2021/07/17 08:19:54;;;;;;;6.15;1.88;;;;;;;24.58;53.78;102828.75;6126547;23;20053;-79
2021/07/17 08:22:19;;;;;;;6.47;1.88;;;;;;;24.42;53.57;102827.16;6128689;23;20020;-78
2021/07/17 08:24:44;;;;;;;5.70;2.08;;;;;;;24.70;54.59;102838.56;6128135;23;20352;-78
2021/07/17 08:27:10;;;;;;;7.85;2.15;;;;;;;24.82;51.43;102832.09;6127428;23;20025;-81
2021/07/17 08:29:36;;;;;;;3.53;1.60;;;;;;;24.66;51.43;102831.41;6126569;23;20033;-80
2021/07/17 08:32:01;;;;;;;8.50;1.83;;;;;;;24.63;50.55;102827.84;6126193;23;20017;-81
2021/07/17 08:34:27;;;;;;;5.63;1.75;;;;;;;24.55;50.84;102834.19;6127738;23;20060;-80
2021/07/17 08:36:52;;;;;;;4.65;1.80;;;;;;;24.73;51.71;102833.13;6126917;23;20025;-79
2021/07/17 08:39:17;;;;;;;8.68;2.58;;;;;;;24.91;52.53;102834.69;6127226;23;20027;-76
2021/07/17 08:41:48;;;;;;;6.53;2.00;;;;;;;25.20;50.76;102827.16;6126636;23;20409;-77
2021/07/17 08:44:36;;;;;;;4.53;1.63;;;;;;;25.16;50.65;102839.78;6127605;23;20010;-78
2021/07/17 08:47:03;;;;;;;10.57;2.13;;;;;;;25.48;50.45;102840.31;6127615;23;20010;-81
2021/07/17 08:49:28;;;;;;;5.55;1.60;;;;;;;25.47;49.50;102839.41;6124147;23;20014;-78
2021/07/17 08:51:54;;;;;;;7.35;1.80;;;;;;;25.67;49.16;102822.94;6125552;23;20028;-79
2021/07/17 08:54:20;;;;;;;8.43;2.35;;;;;;;25.77;50.75;102833.59;6124443;23;20092;-80
2021/07/17 08:56:51;;;;;;;3.85;1.70;;;;;;;26.04;48.42;102826.88;6125679;23;20005;-80
2021/07/17 08:59:37;;;;;;;3.88;1.33;;;;;;;25.80;47.04;102822.75;6124584;23;20010;-78
2021/07/17 09:02:04;;;;;;;5.15;1.48;;;;;;;26.14;46.17;102822.22;6126123;23;20092;-78
2021/07/17 09:04:29;;;;;;;6.20;1.63;;;;;;;26.25;45.80;102814.84;6127195;23;20008;-80
2021/07/17 09:06:55;;;;;;;7.57;1.90;;;;;;;26.56;46.92;102819.63;6100609;23;20013;-79
2021/07/17 09:09:31;;;;;;;2.47;1.35;;;;;;;26.86;45.42;102815.47;6126884;23;20009;-76
2021/07/17 09:11:56;;;;;;;7.95;1.80;;;;;;;26.96;44.26;102807.19;6126822;23;20006;-80
2021/07/17 09:14:54;;;;;;;5.47;1.35;;;;;;;26.95;42.93;102802.69;6125767;23;20013;-81
2021/07/17 09:17:42;;;;;;;3.00;1.88;;;;;;;27.00;42.70;102815.19;6125598;23;20061;-80
2021/07/17 09:20:08;;;;;;;5.88;1.45;;;;;;;27.45;42.98;102821.47;6124784;23;20029;-79
2021/07/17 09:23:04;;;;;;;3.15;1.48;;;;;;;28.00;41.64;102809.31;6125905;23;20010;-78
2021/07/17 09:25:41;;;;;;;5.50;1.70;;;;;;;27.69;40.13;102799.22;6119126;23;20010;-80
2021/07/17 09:28:26;;;;;;;6.03;1.45;;;;;;;27.81;40.43;102805.25;6125103;23;20105;-78
2021/07/17 09:30:56;;;;;;;5.28;1.67;;;;;;;27.99;40.70;102807.50;6126102;23;20014;-78
2021/07/17 09:33:24;;;;;;;5.65;1.70;;;;;;;28.63;40.97;102811.25;6126101;23;20079;-78
2021/07/17 09:35:52;;;;;;;7.70;2.17;;;;;;;29.03;40.26;102807.41;6124446;23;20012;-78
2021/07/17 09:38:18;;;;;;;5.68;1.73;;;;;;;28.46;40.86;102812.63;6125897;23;20021;-78
2021/07/17 09:40:49;;;;;;;5.20;1.50;;;;;;;28.48;41.61;102808.03;6125701;23;20006;-79
2021/07/17 09:43:32;;;;;;;5.88;1.77;;;;;;;28.85;39.93;102798.88;6124904;23;20077;-80
2021/07/17 09:46:22;;;;;;;3.30;1.60;;;;;;;28.56;39.32;102799.72;6124646;23;20377;-78
2021/07/17 09:48:52;;;;;;;7.15;2.00;;;;;;;28.96;39.33;102794.97;6124652;23;20010;-79
2021/07/17 09:51:21;;;;;;;3.33;1.60;;;;;;;29.16;39.17;102792.53;6124455;23;20429;-77
2021/07/17 09:54:19;;;;;;;5.30;1.77;;;;;;;29.41;37.14;102797.22;6125841;23;20006;-79
2021/07/17 09:56:44;;;;;;;4.88;1.63;;;;;;;29.30;38.93;102802.09;6122355;23;20042;-79
2021/07/17 09:59:12;;;;;;;1.95;1.27;;;;;;;29.47;37.73;102794.31;6124627;23;20487;-80
2021/07/17 10:01:38;;;;;;;3.75;1.42;;;;;;;28.86;38.34;102786.25;6124250;23;20009;-78
2021/07/17 10:04:32;;;;;;;6.95;2.08;;;;;;;29.25;37.87;102786.84;6124838;23;20009;-79
2021/07/17 10:07:27;;;;;;;3.60;1.65;;;;;;;28.85;38.12;102788.03;6123953;23;20017;-77
2021/07/17 10:09:52;;;;;;;3.08;1.52;;;;;;;28.64;39.29;102794.13;6126061;23;20020;-77
2021/07/17 10:12:31;;;;;;;6.53;1.60;;;;;;;29.33;38.38;102794.75;6125185;23;20345;-79
2021/07/17 10:14:56;;;;;;;5.93;2.20;;;;;;;29.65;37.15;102786.50;6125602;23;20084;-78
2021/07/17 10:17:35;;;;;;;3.45;1.42;;;;;;;29.88;35.61;102788.47;6124404;23;19998;-80
2021/07/17 10:20:21;;;;;;;6.72;1.50;;;;;;;30.21;34.49;102785.50;6124476;23;20026;-78
2021/07/17 10:23:06;;;;;;;7.13;1.45;;;;;;;30.20;35.41;102784.63;6123944;23;20022;-79
2021/07/17 10:25:32;;;;;;;3.47;1.40;;;;;;;30.59;39.55;102800.47;6125569;23;20010;-80
2021/07/17 10:27:57;;;;;;;2.95;1.13;;;;;;;30.71;33.61;102781.91;6126340;23;20009;-78
2021/07/17 10:30:23;;;;;;;3.03;1.27;;;;;;;30.60;33.04;102769.63;6098882;23;20349;-79
2021/07/17 10:32:49;;;;;;;5.38;1.30;;;;;;;30.53;34.10;102783.50;6124336;23;20085;-78
2021/07/17 10:35:14;;;;;;;7.45;1.20;;;;;;;30.58;32.95;102774.22;6125278;23;20021;-77
2021/07/17 10:37:55;;;;;;;4.30;1.38;;;;;;;30.47;34.16;102779.19;6125963;23;20354;-77
2021/07/17 10:40:41;;;;;;;4.40;1.20;;;;;;;30.33;35.83;102789.63;6124491;23;20005;-77
2021/07/17 10:43:09;;;;;;;2.90;1.20;;;;;;;30.32;33.33;102771.53;6124791;23;20010;-77
2021/07/17 10:45:38;;;;;;;2.53;1.00;;;;;;;30.76;33.61;102780.78;6126838;23;20381;-77
2021/07/17 10:48:44;;;;;;;3.15;1.25;;;;;;;30.73;34.05;102778.19;6124998;23;20410;-76
2021/07/17 10:51:29;;;;;;;4.45;1.52;;;;;;;30.91;34.35;102773.00;6125396;23;20014;-79
2021/07/17 10:53:58;;;;;;;5.38;1.65;;;;;;;31.10;33.43;102776.78;6125999;23;20425;-77
2021/07/17 10:56:29;;;;;;;2.80;1.13;;;;;;;31.49;33.27;102780.69;6124979;23;20014;-74
2021/07/17 10:59:13;;;;;;;3.28;1.38;;;;;;;31.58;34.87;102780.28;6126736;23;20005;-80
2021/07/17 11:02:00;;;;;;;2.92;1.10;;;;;;;32.08;31.21;102764.59;6125183;23;20005;-78
2021/07/17 11:04:52;;;;;;;3.33;0.85;;;;;;;31.86;31.55;102759.22;6125127;23;20010;-76
2021/07/17 11:07:18;;;;;;;2.85;1.05;;;;;;;31.95;31.88;102761.53;6099274;23;20049;-77
2021/07/17 11:10:13;;;;;;;6.82;1.20;;;;;;;31.76;33.33;102767.78;6123968;23;20010;-78
2021/07/17 11:13:04;;;;;;;4.85;1.15;;;;;;;31.82;31.82;102763.91;6123479;23;20018;-76
2021/07/17 11:15:32;;;;;;;9.88;1.10;;;;;;;31.78;32.84;102762.25;6124448;23;20209;-77
2021/07/17 11:17:57;;;;;;;2.22;0.90;;;;;;;32.20;32.13;102755.03;6126145;23;20006;-80
2021/07/17 11:20:35;;;;;;;3.00;1.10;;;;;;;31.92;32.23;102756.19;6125485;23;20330;-78
2021/07/17 11:23:15;;;;;;;4.15;0.88;;;;;;;31.56;32.99;102760.41;6125214;23;20089;-77
2021/07/17 11:26:18;;;;;;;2.70;1.10;;;;;;;31.84;33.34;102753.84;6126628;23;20017;-80
2021/07/17 11:28:44;;;;;;;6.05;0.95;;;;;;;31.85;31.64;102755.63;6123952;23;20269;-79
2021/07/17 11:31:27;;;;;;;2.58;1.10;;;;;;;31.58;32.11;102763.97;6124710;23;20013;-78